• Join FlightAware (Why Join?)
  • Login
  • US Flag 
03:09AM EDT


 

Airport Tracker/Info


-or-


 

Live Flight TrackerFlight Track Log ✈ FFT601 ✈ 25-May-2012 ✈ KTYS - KDEN

Flight Track Log - Related Links

Times and Time Zones

All times are in EDT time to prevent confusion due to time zone crossing. See the FFT601 flight status page for this flight to view local times or setup timezone preferences in your user account.

Time Position Orientation Groundspeed Altitude Reporting Facility
EDT Latitude Longitude Course Direction KTS MPH feet Rate Location/Type
12:46PM 35.8017 -84.0900 296° West 183 211 3,800  Level Atlanta Center
12:47PM 35.8331 -84.1694 284° West 218 251 6,700 2,760 Climbing Atlanta Center
12:48PM 35.8517 -84.2617 280° West 254 292 9,400 2,400 Climbing Atlanta Center
12:49PM 35.8658 -84.3617 279° West 281 323 11,500 2,100 Climbing Atlanta Center
12:50PM 35.8803 -84.4794 279° West 317 365 13,700 1,800 Climbing Atlanta Center
12:51PM 35.8964 -84.6053 278° West 355 409 15,100 1,620 Climbing Atlanta Center
12:52PM 35.9125 -84.7411 279° West 384 442 17,000 1,860 Climbing Atlanta Center
12:54PM 35.9453 -85.0086 278° West 428 493 20,600 1,680 Climbing Memphis Center
12:55PM 35.9619 -85.1536 278° West 433 498 22,000 1,500 Climbing Memphis Center
12:56PM 35.9783 -85.3039 279° West 439 505 23,600 1,500 Climbing Memphis Center
12:57PM 35.9972 -85.4567 278° West 444 511 25,000 1,320 Climbing Memphis Center
12:58PM 36.0156 -85.6122 278° West 454 522 26,300 1,200 Climbing Memphis Center
12:59PM 36.0339 -85.7678 278° West 459 528 27,400 1,200 Climbing Memphis Center
01:00PM 36.0522 -85.9233 296° West 467 537 28,800 1,800 Climbing Memphis Center
01:01PM 36.1094 -86.0717 300° West 435 501 31,100 1,800 Climbing Memphis Center
01:02PM 36.1681 -86.1972 295° West 435 501 32,500 1,260 Climbing Memphis Center
01:03PM 36.2183 -86.3336 281° West 429 494 33,700 1,200 Climbing Memphis Center
01:04PM 36.2394 -86.4739 279° West 418 481 35,000 1,080 Climbing Memphis Center
01:05PM 36.2564 -86.6147 279° West 424 488 35,900 480 Climbing Memphis Center
01:06PM 36.2725 -86.7350 279° West 430 495 36,000  Climbing Memphis Center
01:07PM 36.2917 -86.8939 295° West 435 501 36,000  Level Memphis Center
01:08PM 36.3433 -87.0333 312° West 435 501 36,000  Level Memphis Center
01:09PM 36.4256 -87.1461 313° West 415 478 36,000  Level Memphis Center
01:10PM 36.5053 -87.2511 312° West 410 472 36,000  Level Memphis Center
01:11PM 36.5808 -87.3542 313° West 410 472 36,000  Level Memphis Center
01:12PM 36.6583 -87.4575 313° West 410 472 36,000  Level Memphis Center
01:13PM 36.7378 -87.5633 313° West 410 472 36,000  Level Memphis Center
01:14PM 36.8131 -87.6644 289° West 410 472 36,000  Level Memphis Center
01:15PM 36.8514 -87.8006 280° West 410 472 36,000  Level Memphis Center
01:16PM 36.8708 -87.9425 281° West 400 460 36,000  Level Memphis Center
01:17PM 36.8922 -88.0844 281° West 413 475 36,000  Level Memphis Center
01:18PM 36.9136 -88.2239 279° West 413 475 36,000  Level Memphis Center
01:19PM 36.9303 -88.3636 281° West 413 475 36,000  Level Memphis Center
01:20PM 36.9514 -88.5061 279° West 413 475 36,000  Level Memphis Center
01:21PM 36.9681 -88.6458 280° West 413 475 36,000  Level Memphis Center
01:22PM 36.9886 -88.7856 279° West 413 475 36,000  Level Memphis Center
01:23PM 37.0069 -88.9281 278° West 413 475 36,000  Level Memphis Center
01:24PM 37.0231 -89.0733 279° West 418 481 36,000  Level Memphis Center
01:26PM 37.0528 -89.3036 278° West 423 487 36,000  Level Kansas City Center
01:27PM 37.0692 -89.4456 279° West 423 487 36,000  Level Kansas City Center
01:28PM 37.0878 -89.5875 278° West 423 487 36,000  Level Kansas City Center
01:29PM 37.1044 -89.7453 279° West 423 487 36,000  Level Kansas City Center
01:30PM 37.1228 -89.8875 279° West 423 487 36,000  Level Kansas City Center
01:31PM 37.1406 -90.0272 277° West 423 487 36,000  Level Kansas City Center
01:32PM 37.1542 -90.1672 279° West 423 487 36,000  Level Kansas City Center
01:33PM 37.1717 -90.3094 278° West 423 487 36,000  Level Kansas City Center
01:34PM 37.1869 -90.4519 278° West 423 487 36,000  Level Kansas City Center
01:35PM 37.2022 -90.5947 279° West 423 487 36,000  Level Kansas City Center
01:36PM 37.2194 -90.7372 278° West 423 487 36,000  Level Kansas City Center
01:37PM 37.2342 -90.8747 278° West 416 479 36,000  Level Kansas City Center
01:38PM 37.2508 -91.0175 279° West 416 479 36,000  Level Kansas City Center
01:39PM 37.2675 -91.1578 276° West 411 473 36,000  Level Kansas City Center
01:40PM 37.2797 -91.3006 280° West 411 473 36,000  Level Kansas City Center
01:41PM 37.3003 -91.4461 276° West 416 479 36,000  Level Kansas City Center
01:42PM 37.3122 -91.5892 278° West 416 479 36,000  Level Kansas City Center
01:43PM 37.3281 -91.7322 277° West 421 484 36,000  Level Kansas City Center
01:44PM 37.3417 -91.8728 278° West 421 484 36,000  Level Kansas City Center
01:45PM 37.3572 -92.0161 278° West 421 484 36,000  Level Kansas City Center
01:46PM 37.3728 -92.1619 277° West 421 484 36,000  Level Kansas City Center
01:47PM 37.3856 -92.2894 276° West 421 484 36,000  Level Kansas City Center
01:48PM 37.3986 -92.4356 278° West 421 484 36,000  Level Kansas City Center
01:49PM 37.4136 -92.5789 276° West 421 484 36,000  Level Kansas City Center
01:50PM 37.4264 -92.7250 277° West 421 484 36,000  Level Kansas City Center
01:51PM 37.4408 -92.8661 276° West 426 490 36,000  Level Kansas City Center
01:52PM 37.4533 -93.0122 278° West 426 490 36,000  Level Kansas City Center
01:53PM 37.4694 -93.1506 276° West 421 484 36,000  Level Kansas City Center
01:54PM 37.4814 -93.2969 277° West 421 484 36,000  Level Kansas City Center
01:55PM 37.4953 -93.4381 276° West 421 484 36,000  Level Kansas City Center
01:56PM 37.5069 -93.5819 276° West 421 484 36,000  Level Kansas City Center
01:57PM 37.5183 -93.7206 277° West 421 484 36,000  Level Kansas City Center
01:58PM 37.5317 -93.8644 276° West 416 479 36,000  Level Kansas City Center
01:59PM 37.5428 -94.0058 279° West 416 479 36,000  Level Kansas City Center
02:00PM 37.5622 -94.1575 275° West 403 464 36,000  Level Kansas City Center
02:01PM 37.5708 -94.2964 276° West 403 464 36,000  Level Kansas City Center
02:02PM 37.5836 -94.4406 275° West 408 470 36,000  Level Kansas City Center
02:03PM 37.5939 -94.5794 276° West 408 470 36,000  Level Kansas City Center
02:04PM 37.6064 -94.7236 275° West 408 470 36,000  Level Kansas City Center
02:05PM 37.6164 -94.8625 275° West 408 470 36,000  Level Kansas City Center
02:06PM 37.6264 -95.0042 276° West 408 470 36,000  Level Kansas City Center
02:07PM 37.6383 -95.1433 275° West 408 470 36,000  Level Kansas City Center
02:08PM 37.6478 -95.2878 275° West 408 470 36,000  Level Kansas City Center
02:09PM 37.6572 -95.4294 275° West 408 470 36,000  Level Kansas City Center
02:10PM 37.6664 -95.5686 276° West 408 470 36,000  Level Kansas City Center
02:11PM 37.6778 -95.7103 274° West 408 470 36,000  Level Kansas City Center
02:12PM 37.6844 -95.8494 275° West 408 470 36,000  Level Kansas City Center
02:13PM 37.6933 -95.9783 273° West 408 470 36,000  Level Kansas City Center
02:14PM 37.6997 -96.1333 276° West 408 470 36,000 180 Level Kansas City Center
02:15PM 37.7122 -96.2781 274° West 408 470 36,400 600 Climbing Kansas City Center
02:16PM 37.7206 -96.4253 275° West 413 475 37,200 780 Climbing Kansas City Center
02:17PM 37.7306 -96.5725 275° West 419 482 38,000 360 Climbing Kansas City Center
02:18PM 37.7403 -96.7225 274° West 425 489 38,000  Level Kansas City Center
02:19PM 37.7481 -96.8697 275° West 425 489 38,000  Level Kansas City Center
02:20PM 37.7575 -97.0144 275° West 425 489 38,000  Level Kansas City Center
02:21PM 37.7669 -97.1594 274° West 425 489 38,000  Level Kansas City Center
02:22PM 37.7742 -97.3042 274° West 425 489 38,000  Level Kansas City Center
02:23PM 37.7811 -97.4464 277° West 425 489 38,000  Level Kansas City Center
02:24PM 37.7942 -97.5861 273° West 425 489 38,000  Level Kansas City Center
02:25PM 37.8006 -97.7414 274° West 419 482 38,000  Level Kansas City Center
02:26PM 37.8075 -97.8706 273° West 419 482 38,000  Level Kansas City Center
02:27PM 37.8133 -98.0286 273° West 419 482 38,000  Level Kansas City Center
02:28PM 37.8194 -98.1681 274° West 419 482 38,000  Level Kansas City Center
02:29PM 37.8275 -98.3131 273° West 425 489 38,000  Level Kansas City Center
02:30PM 37.8333 -98.4556 274° West 420 483 38,000  Level Kansas City Center
02:31PM 37.8411 -98.5978 274° West 420 483 38,000  Level Kansas City Center
02:32PM 37.8483 -98.7456 273° West 420 483 38,000  Level Kansas City Center
02:33PM 37.8536 -98.8853 274° West 415 478 38,000  Level Kansas City Center
02:34PM 37.8608 -99.0303 274° West 415 478 38,000  Level Kansas City Center
02:35PM 37.8678 -99.1728 274° West 415 478 38,000  Level Kansas City Center
02:36PM 37.8747 -99.3181 271° West 415 478 38,000  Level Kansas City Center
02:37PM 37.8769 -99.4628 273° West 415 478 38,000  Level Kansas City Center
02:38PM 37.8833 -99.6133 273° West 406 467 38,000  Level Kansas City Center
02:39PM 37.8897 -99.7533 272° West 406 467 38,000  Level Kansas City Center
02:40PM 37.8936 -99.8983 273° West 406 467 38,000  Level Kansas City Center
02:41PM 37.8983 -100.0250 272° West 411 473 38,000  Level Kansas City Center
02:42PM 37.9033 -100.1806 273° West 402 463 38,000  Level Kansas City Center
02:43PM 37.9092 -100.3206 272° West 407 468 38,000  Level Kansas City Center
02:44PM 37.9133 -100.4500 273° West 407 468 38,000  Level Kansas City Center
02:45PM 37.9186 -100.5900 279° West 407 468 38,000  Level Kansas City Center
02:46PM 37.9378 -100.7469 292° West 407 468 38,000  Level Kansas City Center
02:47PM 37.9808 -100.8797 296° West 412 474 38,000  Level Kansas City Center
02:48PM 38.0267 -100.9969 295° West 412 474 38,000  Level Kansas City Center
02:50PM 38.1267 -101.2667 296° West 412 474 38,000  Level Denver Center
02:51PM 38.1739 -101.3919 296° West 413 475 38,000  Level Denver Center
02:52PM 38.2303 -101.5408 296° West 418 481 38,000 -180 Level Denver Center
02:53PM 38.2864 -101.6906 296° West 420 483 37,700 -600 Descending Denver Center
02:54PM 38.3331 -101.8147 295° West 413 475 36,800 -1,020 Descending Denver Center
02:55PM 38.3858 -101.9581 295° West 406 467 35,600 -1,680 Descending Denver Center
02:56PM 38.4303 -102.0797 295° West 399 459 33,300 -1,740 Descending Denver Center
02:57PM 38.4819 -102.2189 306° West 392 451 32,000 -660 Descending Denver Center
02:58PM 38.5428 -102.3261 304° West 392 451 32,000 -180 Level Denver Center
02:59PM 38.6125 -102.4569 304° West 400 460 31,700 -600 Descending Denver Center
03:00PM 38.6750 -102.5742 305° West 413 475 30,800 -840 Descending Denver Center
03:01PM 38.7478 -102.7097 305° West 415 478 30,000 -420 Descending Denver Center
03:02PM 38.8147 -102.8331 305° West 414 476 30,000  Level Denver Center
03:03PM 38.8803 -102.9547 304° West 412 474 30,000  Level Denver Center
03:04PM 38.9442 -103.0767 305° West 410 472 30,000  Level Denver Center
03:06PM 39.0094 -103.1981 304° West 409 471 30,000  Level Denver Center
03:07PM 39.0861 -103.3425 304° West 413 475 30,000 -900 Level Denver Center
03:08PM 39.1506 -103.4642 304° West 410 472 28,200 -2,100 Descending Denver Center
03:09PM 39.2131 -103.5850 304° West 404 465 25,700 -2,640 Descending Denver Center
03:10PM 39.2739 -103.7006 304° West 393 452 22,700 -2,520 Descending Denver Center
03:11PM 39.3342 -103.8167 303° West 388 447 20,500 -1,800 Descending Denver Center
03:12PM 39.3983 -103.9425 301° West 369 425 19,000 -1,680 Descending Denver Center
03:13PM 39.4444 -104.0403 299° West 331 381 17,100 -1,920 Descending Denver Center
03:14PM 39.4911 -104.1503 299° West 327 376 15,100 -1,920 Descending Denver Center
03:15PM 39.5344 -104.2525 299° West 324 373 13,100 -1,020 Descending Denver Center
03:16PM 39.5808 -104.3619 299° West 322 371 13,000 -60 Descending Denver Center
03:17PM 39.6333 -104.4833 297° West 325 374 13,000  Level Denver TRACON
03:18PM 39.6667 -104.5667 303° West 330 380 13,000 -840 Level Denver TRACON
03:19PM 39.7167 -104.6667 303° West 340 391 11,500 -1,080 Descending Denver TRACON
03:20PM 39.7667 -104.7667 316° Northwest 342 394 11,000 -300 Descending Denver TRACON
03:21PM 39.8333 -104.8500 11° North 329 379 11,000 -120 Level Denver TRACON
03:22PM 39.9000 -104.8333 360° North 277 319 10,800 -960 Descending Denver TRACON
03:23PM 39.9833 -104.8333 11° North 256 295 9,100 -1,500 Descending Denver TRACON
03:24PM 40.0500 -104.8167 27° Northeast 262 302 7,800 -1,140 Descending Denver TRACON
03:25PM 40.1000 -104.7833 153° Southeast 240 276 7,000 -420 Descending Denver TRACON
03:26PM 40.0500 -104.7500 143° Southeast 194 223 7,000  Level Denver TRACON
03:27PM 40.0167 -104.7167 169° South 185 213 7,000 -300 Level Denver TRACON
03:28PM 39.9500 -104.7000 180° South 167 192 6,400 -600 Descending Denver TRACON
03:29PM 39.9167 -104.7000 180° South 133 153 5,700 -720 Descending Denver TRACON